UCA4951 KIAH-KLBB
Flight info
| Callsign | UCA4951 |
|---|---|
| Flight time | N/A |
| Altitude | 34000 |
| Route | PITZZ5 CRGER JCT SJT |
| Aircraft | E45X/M-SABDFGRW/S |
Departure
| Time | 2026-05-01 15:00 |
|---|---|
| Airport | George Bush Intercontinental Airport (KIAH) |
Arrival
| Time | N/A |
|---|---|
| Airport | Lubbock Preston Smith International Airport (KLBB) |
| Time | Latitude | Longitude | Altitude | Speed | Heading |
|---|---|---|---|---|---|
| 2026-05-01 14:33 | 29.98462 | -95.34593 | 98 ft | 0 kts | 45° |
| 2026-05-01 14:46 | 29.98455 | -95.34605 | 98 ft | 2 kts | 86° |
| 2026-05-01 14:46 | 29.98472 | -95.34631 | 98 ft | 2 kts | 174° |
| 2026-05-01 14:46 | 29.98478 | -95.34631 | 98 ft | 0 kts | 184° |
| 2026-05-01 14:48 | 29.98477 | -95.34631 | 98 ft | 1 kts | 184° |
| 2026-05-01 14:49 | 29.98416 | -95.34631 | 98 ft | 7 kts | 179° |
| 2026-05-01 14:49 | 29.98383 | -95.34751 | 97 ft | 11 kts | 272° |
| 2026-05-01 14:50 | 29.98383 | -95.34935 | 97 ft | 16 kts | 270° |
| 2026-05-01 14:50 | 29.98403 | -95.35214 | 97 ft | 12 kts | 323° |
| 2026-05-01 14:51 | 29.98491 | -95.35268 | 97 ft | 15 kts | 333° |
| 2026-05-01 14:51 | 29.98698 | -95.35391 | 97 ft | 15 kts | 326° |
| 2026-05-01 14:52 | 29.98884 | -95.35484 | 98 ft | 13 kts | 1° |
| 2026-05-01 14:52 | 29.98989 | -95.35484 | 98 ft | 16 kts | 0° |
| 2026-05-01 14:52 | 29.99209 | -95.35484 | 98 ft | 11 kts | 0° |
| 2026-05-01 14:53 | 29.99244 | -95.35484 | 98 ft | 0 kts | 359° |
| 2026-05-01 14:54 | 29.99244 | -95.35485 | 98 ft | 0 kts | 359° |
| 2026-05-01 14:54 | 29.99244 | -95.35484 | 98 ft | 0 kts | 359° |
| 2026-05-01 14:54 | 29.99244 | -95.35485 | 98 ft | 0 kts | 359° |
| 2026-05-01 14:55 | 29.99244 | -95.35484 | 98 ft | 0 kts | 359° |
| 2026-05-01 14:57 | 29.99314 | -95.35486 | 98 ft | 7 kts | 360° |
| 2026-05-01 14:57 | 29.99342 | -95.35442 | 98 ft | 4 kts | 92° |
| 2026-05-01 14:58 | 29.99342 | -95.35441 | 98 ft | 0 kts | 92° |
| 2026-05-01 14:59 | 29.99342 | -95.35429 | 98 ft | 10 kts | 92° |
| 2026-05-01 14:59 | 29.99343 | -95.35008 | 98 ft | 91 kts | 90° |
| 2026-05-01 14:59 | 29.99341 | -95.34018 | 114 ft | 149 kts | 86° |
| 2026-05-01 15:00 | 29.99331 | -95.31487 | 1301 ft | 168 kts | 88° |
| 2026-05-01 15:00 | 29.99321 | -95.30148 | 2110 ft | 173 kts | 88° |
| 2026-05-01 15:00 | 29.99328 | -95.28577 | 2240 ft | 219 kts | 88° |
| 2026-05-01 15:01 | 29.99360 | -95.26804 | 3140 ft | 227 kts | 88° |
| 2026-05-01 15:01 | 29.99157 | -95.25027 | 4130 ft | 231 kts | 114° |
| 2026-05-01 15:01 | 29.98104 | -95.23661 | 4970 ft | 242 kts | 148° |
| 2026-05-01 15:01 | 29.96467 | -95.23234 | 5984 ft | 248 kts | 184° |
| 2026-05-01 15:02 | 29.94908 | -95.23969 | 7084 ft | 250 kts | 217° |
| 2026-05-01 15:02 | 29.94178 | -95.24982 | 7759 ft | 255 kts | 237° |
| 2026-05-01 15:02 | 29.93620 | -95.27624 | 9112 ft | 256 kts | 249° |
| 2026-05-01 15:02 | 29.92997 | -95.29488 | 10016 ft | 255 kts | 243° |
| 2026-05-01 15:03 | 29.92307 | -95.31346 | 10932 ft | 255 kts | 243° |
| 2026-05-01 15:03 | 29.91583 | -95.33239 | 11569 ft | 265 kts | 243° |
| 2026-05-01 15:03 | 29.90823 | -95.35219 | 12162 ft | 276 kts | 243° |
| 2026-05-01 15:03 | 29.90028 | -95.37282 | 12744 ft | 286 kts | 244° |
| 2026-05-01 15:04 | 29.89226 | -95.39362 | 13474 ft | 289 kts | 244° |
| 2026-05-01 15:04 | 29.88393 | -95.41522 | 13996 ft | 299 kts | 245° |
| 2026-05-01 15:04 | 29.87541 | -95.43730 | 14538 ft | 307 kts | 244° |
| 2026-05-01 15:04 | 29.86672 | -95.45979 | 15237 ft | 309 kts | 244° |
| 2026-05-01 15:05 | 29.85803 | -95.48229 | 16032 ft | 308 kts | 245° |
| 2026-05-01 15:05 | 29.84837 | -95.50423 | 16683 ft | 310 kts | 241° |
| 2026-05-01 15:05 | 29.83792 | -95.52568 | 17418 ft | 308 kts | 241° |
| 2026-05-01 15:05 | 29.82963 | -95.54793 | 18156 ft | 307 kts | 256° |
| 2026-05-01 15:06 | 29.82981 | -95.57283 | 18644 ft | 322 kts | 277° |
| 2026-05-01 15:06 | 29.83954 | -95.59630 | 19327 ft | 337 kts | 297° |
| 2026-05-01 15:06 | 29.85181 | -95.61867 | 20157 ft | 325 kts | 292° |
| 2026-05-01 15:06 | 29.86289 | -95.64101 | 20825 ft | 323 kts | 292° |
| 2026-05-01 15:07 | 29.87388 | -95.66321 | 21520 ft | 320 kts | 292° |
| 2026-05-01 15:07 | 29.88473 | -95.68516 | 22253 ft | 316 kts | 292° |
| 2026-05-01 15:07 | 29.89558 | -95.70716 | 22760 ft | 319 kts | 292° |
| 2026-05-01 15:07 | 29.90670 | -95.72969 | 23039 ft | 329 kts | 292° |
| 2026-05-01 15:08 | 29.91813 | -95.75285 | 23512 ft | 333 kts | 293° |
| 2026-05-01 15:08 | 29.92959 | -95.77610 | 24073 ft | 334 kts | 293° |
| 2026-05-01 15:08 | 29.94116 | -95.79956 | 24568 ft | 337 kts | 292° |
| 2026-05-01 15:08 | 29.95273 | -95.82306 | 25067 ft | 340 kts | 292° |
| 2026-05-01 15:09 | 29.96445 | -95.84687 | 25524 ft | 344 kts | 293° |
| 2026-05-01 15:09 | 29.97223 | -95.86267 | 25946 ft | 342 kts | 293° |
| 2026-05-01 15:09 | 29.98792 | -95.89458 | 26877 ft | 338 kts | 293° |
| 2026-05-01 15:09 | 29.99954 | -95.91821 | 27425 ft | 339 kts | 292° |
| 2026-05-01 15:10 | 30.01037 | -95.94025 | 27945 ft | 339 kts | 292° |
| 2026-05-01 15:10 | 30.03340 | -95.98717 | 29124 ft | 336 kts | 292° |
| 2026-05-01 15:10 | 30.04492 | -96.01068 | 29693 ft | 335 kts | 292° |
| 2026-05-01 15:11 | 30.05647 | -96.03427 | 30250 ft | 334 kts | 292° |
| 2026-05-01 15:11 | 30.07412 | -96.08282 | 31112 ft | 328 kts | 276° |
| 2026-05-01 15:11 | 30.07789 | -96.10870 | 31640 ft | 327 kts | 276° |
| 2026-05-01 15:12 | 30.08175 | -96.13427 | 32087 ft | 328 kts | 276° |
| 2026-05-01 15:12 | 30.08970 | -96.18598 | 33191 ft | 324 kts | 276° |
| 2026-05-01 15:12 | 30.09365 | -96.21159 | 33724 ft | 324 kts | 276° |
| 2026-05-01 15:13 | 30.10584 | -96.29084 | 33954 ft | 348 kts | 276° |
| 2026-05-01 15:14 | 30.11447 | -96.34705 | 33951 ft | 361 kts | 276° |
| 2026-05-01 15:14 | 30.12788 | -96.43465 | 33947 ft | 379 kts | 276° |
| 2026-05-01 15:15 | 30.14629 | -96.55570 | 33949 ft | 387 kts | 276° |
| 2026-05-01 15:16 | 30.16492 | -96.67894 | 33965 ft | 391 kts | 276° |
| 2026-05-01 15:18 | 30.18824 | -96.83438 | 33977 ft | 394 kts | 276° |
| 2026-05-01 15:19 | 30.20650 | -96.95692 | 33976 ft | 381 kts | 276° |
| 2026-05-01 15:19 | 30.21985 | -97.04720 | 33989 ft | 380 kts | 275° |
| 2026-05-01 15:20 | 30.23334 | -97.13780 | 33992 ft | 382 kts | 275° |
| 2026-05-01 15:21 | 30.24232 | -97.19810 | 33977 ft | 384 kts | 276° |
| 2026-05-01 15:21 | 30.25139 | -97.25919 | 33953 ft | 387 kts | 276° |
| 2026-05-01 15:22 | 30.26500 | -97.35123 | 33965 ft | 390 kts | 275° |
| 2026-05-01 15:22 | 30.27409 | -97.41290 | 33965 ft | 392 kts | 275° |
| 2026-05-01 15:23 | 30.28318 | -97.47492 | 33960 ft | 392 kts | 276° |
| 2026-05-01 15:23 | 30.29231 | -97.53728 | 33965 ft | 392 kts | 276° |
| 2026-05-01 15:24 | 30.30131 | -97.59898 | 33981 ft | 391 kts | 276° |
| 2026-05-01 15:24 | 30.31030 | -97.66098 | 33975 ft | 390 kts | 275° |
| 2026-05-01 15:25 | 30.31923 | -97.72269 | 33986 ft | 391 kts | 275° |
| 2026-05-01 15:25 | 30.33194 | -97.78413 | 33990 ft | 394 kts | 279° |
| 2026-05-01 15:26 | 30.34504 | -97.84555 | 34004 ft | 394 kts | 278° |
| 2026-05-01 15:26 | 30.35807 | -97.90717 | 34004 ft | 393 kts | 278° |
| 2026-05-01 15:27 | 30.37098 | -97.96836 | 33999 ft | 393 kts | 278° |
| 2026-05-01 15:28 | 30.39034 | -98.06046 | 34001 ft | 392 kts | 278° |
| 2026-05-01 15:28 | 30.40314 | -98.12157 | 33993 ft | 392 kts | 278° |
| 2026-05-01 15:29 | 30.42225 | -98.21307 | 33989 ft | 390 kts | 278° |
| 2026-05-01 15:30 | 30.44549 | -98.32479 | 33989 ft | 389 kts | 277° |
| 2026-05-01 15:31 | 30.46779 | -98.51802 | 33983 ft | 382 kts | 272° |
| 2026-05-01 15:32 | 30.48054 | -98.63963 | 33968 ft | 380 kts | 272° |
| 2026-05-01 15:34 | 30.49936 | -98.82110 | 33979 ft | 377 kts | 272° |